sensor_id;sensor_type;location;lat;lon;timestamp;pressure;altitude;pressure_sealevel;temperature
72054;BMP280;59918;51.280;7.950;2023-07-24T00:02:08;97081.38;;;17.87
72054;BMP280;59918;51.280;7.950;2023-07-24T00:04:36;97076.69;;;17.89
72054;BMP280;59918;51.280;7.950;2023-07-24T00:07:01;97077.19;;;17.91
72054;BMP280;59918;51.280;7.950;2023-07-24T00:09:26;97079.28;;;17.94
72054;BMP280;59918;51.280;7.950;2023-07-24T00:11:52;97070.94;;;17.97
72054;BMP280;59918;51.280;7.950;2023-07-24T00:14:17;97075.59;;;18.00
72054;BMP280;59918;51.280;7.950;2023-07-24T00:16:42;97063.13;;;18.02
72054;BMP280;59918;51.280;7.950;2023-07-24T00:19:08;97068.81;;;18.04
72054;BMP280;59918;51.280;7.950;2023-07-24T00:21:36;97070.09;;;18.06
72054;BMP280;59918;51.280;7.950;2023-07-24T00:24:01;97069.09;;;18.07
72054;BMP280;59918;51.280;7.950;2023-07-24T00:26:26;97063.63;;;18.09
72054;BMP280;59918;51.280;7.950;2023-07-24T00:28:52;97072.22;;;18.09
72054;BMP280;59918;51.280;7.950;2023-07-24T00:31:17;97064.13;;;18.11
72054;BMP280;59918;51.280;7.950;2023-07-24T00:33:42;97058.16;;;18.10
72054;BMP280;59918;51.280;7.950;2023-07-24T00:36:07;97058.91;;;18.11
72054;BMP280;59918;51.280;7.950;2023-07-24T00:38:39;97064.13;;;18.11
72054;BMP280;59918;51.280;7.950;2023-07-24T00:41:04;97051.91;;;18.11
72054;BMP280;59918;51.280;7.950;2023-07-24T00:43:29;97049.53;;;18.15
72054;BMP280;59918;51.280;7.950;2023-07-24T00:45:56;97053.72;;;18.16
72054;BMP280;59918;51.280;7.950;2023-07-24T00:48:27;97042.25;;;18.17
72054;BMP280;59918;51.280;7.950;2023-07-24T00:50:53;97044.06;;;18.16
72054;BMP280;59918;51.280;7.950;2023-07-24T00:53:19;97044.84;;;18.17
72054;BMP280;59918;51.280;7.950;2023-07-24T00:55:50;97036.28;;;18.16
72054;BMP280;59918;51.280;7.950;2023-07-24T00:58:16;97027.19;;;18.14
72054;BMP280;59918;51.280;7.950;2023-07-24T01:00:41;97028.47;;;18.16
72054;BMP280;59918;51.280;7.950;2023-07-24T01:03:07;97026.41;;;18.13
72054;BMP280;59918;51.280;7.950;2023-07-24T01:05:41;97029.78;;;18.14
72054;BMP280;59918;51.280;7.950;2023-07-24T01:08:07;97023.31;;;18.11
72054;BMP280;59918;51.280;7.950;2023-07-24T01:10:36;97027.44;;;18.12
72054;BMP280;59918;51.280;7.950;2023-07-24T01:13:09;97021.47;;;18.12
72054;BMP280;59918;51.280;7.950;2023-07-24T01:15:48;97021.47;;;18.12
72054;BMP280;59918;51.280;7.950;2023-07-24T01:18:16;97023.56;;;18.10
72054;BMP280;59918;51.280;7.950;2023-07-24T01:20:48;97021.22;;;18.08
72054;BMP280;59918;51.280;7.950;2023-07-24T01:26:02;97015.75;;;18.05
72054;BMP280;59918;51.280;7.950;2023-07-24T01:28:28;97016.81;;;18.04
72054;BMP280;59918;51.280;7.950;2023-07-24T01:30:56;97014.19;;;18.04
72054;BMP280;59918;51.280;7.950;2023-07-24T01:33:24;97005.88;;;18.02
72054;BMP280;59918;51.280;7.950;2023-07-24T01:35:59;97015.78;;;18.00
72054;BMP280;59918;51.280;7.950;2023-07-24T01:38:25;97006.44;;;17.94
72054;BMP280;59918;51.280;7.950;2023-07-24T01:40:52;97008.81;;;17.90
72054;BMP280;59918;51.280;7.950;2023-07-24T01:43:18;97012.47;;;17.85
72054;BMP280;59918;51.280;7.950;2023-07-24T01:45:43;97000.53;;;17.79
72054;BMP280;59918;51.280;7.950;2023-07-24T01:48:14;97002.13;;;17.75
72054;BMP280;59918;51.280;7.950;2023-07-24T01:50:40;96993.03;;;17.67
72054;BMP280;59918;51.280;7.950;2023-07-24T01:53:05;96985.28;;;17.62
72054;BMP280;59918;51.280;7.950;2023-07-24T01:55:30;96981.66;;;17.58
72054;BMP280;59918;51.280;7.950;2023-07-24T01:57:55;96984.00;;;17.55
72054;BMP280;59918;51.280;7.950;2023-07-24T02:00:26;96985.59;;;17.51
72054;BMP280;59918;51.280;7.950;2023-07-24T02:02:52;96991.28;;;17.53
72054;BMP280;59918;51.280;7.950;2023-07-24T02:05:17;96984.00;;;17.55
72054;BMP280;59918;51.280;7.950;2023-07-24T02:07:42;96983.19;;;17.59
72054;BMP280;59918;51.280;7.950;2023-07-24T02:10:14;96976.97;;;17.60
72054;BMP280;59918;51.280;7.950;2023-07-24T02:12:39;96984.78;;;17.60
72054;BMP280;59918;51.280;7.950;2023-07-24T02:15:05;96982.19;;;17.60
72054;BMP280;59918;51.280;7.950;2023-07-24T02:17:30;96977.25;;;17.59
72054;BMP280;59918;51.280;7.950;2023-07-24T02:20:02;96971.00;;;17.55
72054;BMP280;59918;51.280;7.950;2023-07-24T02:22:27;96970.75;;;17.52
72054;BMP280;59918;51.280;7.950;2023-07-24T02:24:52;96966.63;;;17.51
72054;BMP280;59918;51.280;7.950;2023-07-24T02:27:31;96968.94;;;17.52
72054;BMP280;59918;51.280;7.950;2023-07-24T02:29:57;96972.34;;;17.53
72054;BMP280;59918;51.280;7.950;2023-07-24T02:32:23;96951.78;;;17.51
72054;BMP280;59918;51.280;7.950;2023-07-24T02:34:52;96953.88;;;17.49
72054;BMP280;59918;51.280;7.950;2023-07-24T02:37:18;96968.19;;;17.47
72054;BMP280;59918;51.280;7.950;2023-07-24T02:39:43;96952.31;;;17.48
72054;BMP280;59918;51.280;7.950;2023-07-24T02:42:09;96957.25;;;17.54
72054;BMP280;59918;51.280;7.950;2023-07-24T02:44:34;96953.84;;;17.59
72054;BMP280;59918;51.280;7.950;2023-07-24T02:47:00;96959.28;;;17.62
72054;BMP280;59918;51.280;7.950;2023-07-24T02:49:28;96946.25;;;17.67
72054;BMP280;59918;51.280;7.950;2023-07-24T02:51:54;96947.81;;;17.68
72054;BMP280;59918;51.280;7.950;2023-07-24T02:54:19;96945.47;;;17.67
72054;BMP280;59918;51.280;7.950;2023-07-24T02:56:44;96963.94;;;17.70
72054;BMP280;59918;51.280;7.950;2023-07-24T02:59:11;96956.66;;;17.72
72054;BMP280;59918;51.280;7.950;2023-07-24T03:01:39;96943.59;;;17.77
72054;BMP280;59918;51.280;7.950;2023-07-24T03:04:05;96944.41;;;17.78
72054;BMP280;59918;51.280;7.950;2023-07-24T03:06:30;96927.50;;;17.75
72054;BMP280;59918;51.280;7.950;2023-07-24T03:08:55;96922.28;;;17.75
72054;BMP280;59918;51.280;7.950;2023-07-24T03:11:21;96918.16;;;17.74
72054;BMP280;59918;51.280;7.950;2023-07-24T03:13:46;96916.59;;;17.73
72054;BMP280;59918;51.280;7.950;2023-07-24T03:16:11;96912.94;;;17.74
72054;BMP280;59918;51.280;7.950;2023-07-24T03:18:39;96917.91;;;17.76
72054;BMP280;59918;51.280;7.950;2023-07-24T03:21:05;96906.69;;;17.75
72054;BMP280;59918;51.280;7.950;2023-07-24T03:23:30;96913.97;;;17.73
72054;BMP280;59918;51.280;7.950;2023-07-24T03:25:55;96906.22;;;17.68
72054;BMP280;59918;51.280;7.950;2023-07-24T03:28:20;96901.56;;;17.65
72054;BMP280;59918;51.280;7.950;2023-07-24T03:30:46;96900.00;;;17.64
72054;BMP280;59918;51.280;7.950;2023-07-24T03:33:11;96898.44;;;17.63
72054;BMP280;59918;51.280;7.950;2023-07-24T03:35:42;96891.97;;;17.61
72054;BMP280;59918;51.280;7.950;2023-07-24T03:38:07;96895.09;;;17.58
72054;BMP280;59918;51.280;7.950;2023-07-24T03:40:32;96903.69;;;17.58
72054;BMP280;59918;51.280;7.950;2023-07-24T03:42:58;96893.78;;;17.60
72054;BMP280;59918;51.280;7.950;2023-07-24T03:45:23;96888.59;;;17.60
72054;BMP280;59918;51.280;7.950;2023-07-24T03:47:54;96886.50;;;17.62
72054;BMP280;59918;51.280;7.950;2023-07-24T03:50:19;96882.06;;;17.63
72054;BMP280;59918;51.280;7.950;2023-07-24T03:52:45;96866.22;;;17.64
72054;BMP280;59918;51.280;7.950;2023-07-24T03:55:10;96853.22;;;17.64
72054;BMP280;59918;51.280;7.950;2023-07-24T03:57:35;96854.75;;;17.65
72054;BMP280;59918;51.280;7.950;2023-07-24T04:00:04;96853.75;;;17.61
72054;BMP280;59918;51.280;7.950;2023-07-24T04:02:29;96853.25;;;17.59
72054;BMP280;59918;51.280;7.950;2023-07-24T04:04:55;96841.00;;;17.60
72054;BMP280;59918;51.280;7.950;2023-07-24T04:07:20;96848.53;;;17.61
72054;BMP280;59918;51.280;7.950;2023-07-24T04:09:45;96840.75;;;17.61
72054;BMP280;59918;51.280;7.950;2023-07-24T04:12:10;96839.47;;;17.59
72054;BMP280;59918;51.280;7.950;2023-07-24T04:14:36;96838.19;;;17.56
72054;BMP280;59918;51.280;7.950;2023-07-24T04:17:04;96840.28;;;17.54
72054;BMP280;59918;51.280;7.950;2023-07-24T04:19:29;96848.63;;;17.52
72054;BMP280;59918;51.280;7.950;2023-07-24T04:21:55;96864.47;;;17.50
72054;BMP280;59918;51.280;7.950;2023-07-24T04:24:21;96866.53;;;17.53
72054;BMP280;59918;51.280;7.950;2023-07-24T04:26:46;96855.09;;;17.54
72054;BMP280;59918;51.280;7.950;2023-07-24T04:29:11;96856.16;;;17.53
72054;BMP280;59918;51.280;7.950;2023-07-24T04:31:40;96862.13;;;17.53
72054;BMP280;59918;51.280;7.950;2023-07-24T04:34:05;96862.88;;;17.54
72054;BMP280;59918;51.280;7.950;2023-07-24T04:36:30;96865.78;;;17.53
72054;BMP280;59918;51.280;7.950;2023-07-24T04:38:55;96863.69;;;17.54
72054;BMP280;59918;51.280;7.950;2023-07-24T04:41:21;96860.78;;;17.56
72054;BMP280;59918;51.280;7.950;2023-07-24T04:43:46;96870.41;;;17.60
72054;BMP280;59918;51.280;7.950;2023-07-24T04:46:11;96873.47;;;17.67
72054;BMP280;59918;51.280;7.950;2023-07-24T04:48:40;96866.41;;;17.78
72054;BMP280;59918;51.280;7.950;2023-07-24T04:51:05;96868.19;;;17.82
72054;BMP280;59918;51.280;7.950;2023-07-24T04:53:30;96859.81;;;17.85
72054;BMP280;59918;51.280;7.950;2023-07-24T04:55:55;96849.41;;;17.90
72054;BMP280;59918;51.280;7.950;2023-07-24T04:58:21;96852.75;;;17.95
72054;BMP280;59918;51.280;7.950;2023-07-24T05:00:46;96849.81;;;18.02
72054;BMP280;59918;51.280;7.950;2023-07-24T05:03:11;96850.59;;;18.07
72054;BMP280;59918;51.280;7.950;2023-07-24T05:05:40;96855.97;;;18.16
72054;BMP280;59918;51.280;7.950;2023-07-24T05:08:05;96873.88;;;18.22
72054;BMP280;59918;51.280;7.950;2023-07-24T05:10:35;96862.63;;;18.27
72054;BMP280;59918;51.280;7.950;2023-07-24T05:13:00;96849.59;;;18.31
72054;BMP280;59918;51.280;7.950;2023-07-24T05:15:28;96859.47;;;18.34
72054;BMP280;59918;51.280;7.950;2023-07-24T05:17:53;96842.03;;;18.35
72054;BMP280;59918;51.280;7.950;2023-07-24T05:20:18;96850.06;;;18.38
72054;BMP280;59918;51.280;7.950;2023-07-24T05:22:44;96846.91;;;18.41
72054;BMP280;59918;51.280;7.950;2023-07-24T05:25:09;96858.59;;;18.44
72054;BMP280;59918;51.280;7.950;2023-07-24T05:27:34;96858.31;;;18.45
72054;BMP280;59918;51.280;7.950;2023-07-24T05:29:59;96867.69;;;18.46
72054;BMP280;59918;51.280;7.950;2023-07-24T05:32:31;96858.00;;;18.52
72054;BMP280;59918;51.280;7.950;2023-07-24T05:34:56;96860.81;;;18.55
72054;BMP280;59918;51.280;7.950;2023-07-24T05:37:24;96862.38;;;18.56
72054;BMP280;59918;51.280;7.950;2023-07-24T05:39:55;96866.03;;;18.55
72054;BMP280;59918;51.280;7.950;2023-07-24T05:42:20;96864.69;;;18.58
72054;BMP280;59918;51.280;7.950;2023-07-24T05:44:45;96865.06;;;18.74
72054;BMP280;59918;51.280;7.950;2023-07-24T05:47:10;96869.44;;;18.79
72054;BMP280;59918;51.280;7.950;2023-07-24T05:49:36;96853.53;;;18.80
72054;BMP280;59918;51.280;7.950;2023-07-24T05:52:04;96849.56;;;18.88
72054;BMP280;59918;51.280;7.950;2023-07-24T05:54:29;96853.13;;;18.97
72054;BMP280;59918;51.280;7.950;2023-07-24T05:56:54;96844.75;;;19.00
72054;BMP280;59918;51.280;7.950;2023-07-24T05:59:19;96854.47;;;19.12
72054;BMP280;59918;51.280;7.950;2023-07-24T06:01:45;96861.06;;;19.28
72054;BMP280;59918;51.280;7.950;2023-07-24T06:04:10;96864.59;;;19.37
72054;BMP280;59918;51.280;7.950;2023-07-24T06:06:35;96859.38;;;19.37
72054;BMP280;59918;51.280;7.950;2023-07-24T06:09:04;96868.81;;;19.33
72054;BMP280;59918;51.280;7.950;2023-07-24T06:11:29;96862.91;;;19.28
72054;BMP280;59918;51.280;7.950;2023-07-24T06:13:54;96867.84;;;19.29
72054;BMP280;59918;51.280;7.950;2023-07-24T06:16:19;96873.91;;;19.25
72054;BMP280;59918;51.280;7.950;2023-07-24T06:18:45;96869.59;;;19.34
72054;BMP280;59918;51.280;7.950;2023-07-24T06:21:10;96869.91;;;19.50
72054;BMP280;59918;51.280;7.950;2023-07-24T06:23:35;96870.09;;;19.54
72054;BMP280;59918;51.280;7.950;2023-07-24T06:26:04;96882.63;;;19.52
72054;BMP280;59918;51.280;7.950;2023-07-24T06:28:29;96878.28;;;19.47
72054;BMP280;59918;51.280;7.950;2023-07-24T06:30:54;96878.00;;;19.49
72054;BMP280;59918;51.280;7.950;2023-07-24T06:33:20;96882.09;;;19.55
72054;BMP280;59918;51.280;7.950;2023-07-24T06:35:45;96885.75;;;19.54
72054;BMP280;59918;51.280;7.950;2023-07-24T06:38:10;96884.16;;;19.58
72054;BMP280;59918;51.280;7.950;2023-07-24T06:40:36;96890.34;;;19.62
72054;BMP280;59918;51.280;7.950;2023-07-24T06:43:07;96893.47;;;19.64
72054;BMP280;59918;51.280;7.950;2023-07-24T06:45:32;96885.78;;;19.72
72054;BMP280;59918;51.280;7.950;2023-07-24T06:47:57;96893.41;;;19.87
72054;BMP280;59918;51.280;7.950;2023-07-24T06:50:23;96896.56;;;20.02
72054;BMP280;59918;51.280;7.950;2023-07-24T06:52:48;96896.03;;;20.18
72054;BMP280;59918;51.280;7.950;2023-07-24T06:55:20;96894.84;;;20.29
72054;BMP280;59918;51.280;7.950;2023-07-24T06:57:45;96893.47;;;20.32
72054;BMP280;59918;51.280;7.950;2023-07-24T07:00:11;96890.88;;;20.32
72054;BMP280;59918;51.280;7.950;2023-07-24T07:02:36;96883.25;;;20.35
72054;BMP280;59918;51.280;7.950;2023-07-24T07:05:04;96886.84;;;20.39
72054;BMP280;59918;51.280;7.950;2023-07-24T07:07:30;96881.72;;;20.48
72054;BMP280;59918;51.280;7.950;2023-07-24T07:09:55;96883.69;;;20.55
72054;BMP280;59918;51.280;7.950;2023-07-24T07:12:20;96880.44;;;20.63
72054;BMP280;59918;51.280;7.950;2023-07-24T07:14:46;96872.53;;;20.68
72054;BMP280;59918;51.280;7.950;2023-07-24T07:17:11;96867.66;;;20.75
72054;BMP280;59918;51.280;7.950;2023-07-24T07:19:36;96870.00;;;20.77
72054;BMP280;59918;51.280;7.950;2023-07-24T07:22:05;96863.03;;;20.72
72054;BMP280;59918;51.280;7.950;2023-07-24T07:24:30;96865.75;;;20.81
72054;BMP280;59918;51.280;7.950;2023-07-24T07:26:55;96863.63;;;20.96
72054;BMP280;59918;51.280;7.950;2023-07-24T07:29:20;96851.34;;;21.10
72054;BMP280;59918;51.280;7.950;2023-07-24T07:31:46;96852.69;;;21.21
72054;BMP280;59918;51.280;7.950;2023-07-24T07:34:11;96861.69;;;21.41
72054;BMP280;59918;51.280;7.950;2023-07-24T07:36:36;96861.25;;;21.61
72054;BMP280;59918;51.280;7.950;2023-07-24T07:39:05;96856.41;;;21.68
72054;BMP280;59918;51.280;7.950;2023-07-24T07:41:30;96860.69;;;21.64
72054;BMP280;59918;51.280;7.950;2023-07-24T07:43:55;96852.94;;;21.59
72054;BMP280;59918;51.280;7.950;2023-07-24T07:46:20;96850.44;;;21.54
72054;BMP280;59918;51.280;7.950;2023-07-24T07:48:46;96870.66;;;21.35
72054;BMP280;59918;51.280;7.950;2023-07-24T07:51:11;96870.41;;;21.23
72054;BMP280;59918;51.280;7.950;2023-07-24T07:53:36;96863.44;;;21.32
72054;BMP280;59918;51.280;7.950;2023-07-24T07:56:04;96860.13;;;21.54
72054;BMP280;59918;51.280;7.950;2023-07-24T07:58:30;96845.78;;;21.86
72054;BMP280;59918;51.280;7.950;2023-07-24T08:00:55;96848.50;;;22.16
72054;BMP280;59918;51.280;7.950;2023-07-24T08:03:21;96852.63;;;22.39
72054;BMP280;59918;51.280;7.950;2023-07-24T08:05:46;96854.53;;;22.77
72054;BMP280;59918;51.280;7.950;2023-07-24T08:08:11;96846.97;;;23.14
72054;BMP280;59918;51.280;7.950;2023-07-24T08:10:43;96834.34;;;23.24
72054;BMP280;59918;51.280;7.950;2023-07-24T08:13:08;96829.03;;;22.99
72054;BMP280;59918;51.280;7.950;2023-07-24T08:15:35;96823.69;;;22.82
72054;BMP280;59918;51.280;7.950;2023-07-24T08:18:00;96825.59;;;22.90
72054;BMP280;59918;51.280;7.950;2023-07-24T08:20:35;96830.63;;;23.08
72054;BMP280;59918;51.280;7.950;2023-07-24T08:23:00;96831.38;;;23.01
72054;BMP280;59918;51.280;7.950;2023-07-24T08:25:32;96835.53;;;23.02
72054;BMP280;59918;51.280;7.950;2023-07-24T08:27:57;96820.09;;;23.00
72054;BMP280;59918;51.280;7.950;2023-07-24T08:30:22;96821.34;;;23.03
72054;BMP280;59918;51.280;7.950;2023-07-24T08:32:47;96814.53;;;23.02
72054;BMP280;59918;51.280;7.950;2023-07-24T08:35:13;96834.72;;;22.93
72054;BMP280;59918;51.280;7.950;2023-07-24T08:37:44;96839.22;;;22.70
72054;BMP280;59918;51.280;7.950;2023-07-24T08:40:10;96820.34;;;22.52
72054;BMP280;59918;51.280;7.950;2023-07-24T08:42:42;96834.59;;;22.37
72054;BMP280;59918;51.280;7.950;2023-07-24T08:45:28;96829.19;;;22.12
72054;BMP280;59918;51.280;7.950;2023-07-24T08:47:55;96817.88;;;22.03
72054;BMP280;59918;51.280;7.950;2023-07-24T08:50:20;96820.00;;;22.45
72054;BMP280;59918;51.280;7.950;2023-07-24T08:52:46;96816.59;;;22.74
72054;BMP280;59918;51.280;7.950;2023-07-24T08:55:11;96807.78;;;23.01
72054;BMP280;59918;51.280;7.950;2023-07-24T08:57:42;96821.59;;;23.40
72054;BMP280;59918;51.280;7.950;2023-07-24T09:00:08;96820.06;;;23.97
72054;BMP280;59918;51.280;7.950;2023-07-24T09:02:35;96817.41;;;24.22
72054;BMP280;59918;51.280;7.950;2023-07-24T09:05:09;96806.41;;;24.46
72054;BMP280;59918;51.280;7.950;2023-07-24T09:07:35;96814.97;;;24.01
72054;BMP280;59918;51.280;7.950;2023-07-24T09:10:00;96814.03;;;23.80
72054;BMP280;59918;51.280;7.950;2023-07-24T09:12:28;96822.22;;;23.95
72054;BMP280;59918;51.280;7.950;2023-07-24T09:15:06;96806.75;;;24.19
72054;BMP280;59918;51.280;7.950;2023-07-24T09:17:31;96801.16;;;24.37
72054;BMP280;59918;51.280;7.950;2023-07-24T09:19:57;96803.53;;;24.59
72054;BMP280;59918;51.280;7.950;2023-07-24T09:22:22;96814.81;;;24.68
72054;BMP280;59918;51.280;7.950;2023-07-24T09:24:57;96793.88;;;24.80
72054;BMP280;59918;51.280;7.950;2023-07-24T09:27:29;96780.78;;;25.29
72054;BMP280;59918;51.280;7.950;2023-07-24T09:29:57;96771.06;;;25.69
72054;BMP280;59918;51.280;7.950;2023-07-24T09:32:25;96773.53;;;25.86
72054;BMP280;59918;51.280;7.950;2023-07-24T09:34:53;96773.41;;;26.15
72054;BMP280;59918;51.280;7.950;2023-07-24T09:37:34;96771.56;;;26.71
72054;BMP280;59918;51.280;7.950;2023-07-24T09:39:59;96786.41;;;26.87
72054;BMP280;59918;51.280;7.950;2023-07-24T09:42:32;96763.84;;;26.66
72054;BMP280;59918;51.280;7.950;2023-07-24T09:44:58;96770.66;;;26.67
72054;BMP280;59918;51.280;7.950;2023-07-24T09:47:23;96770.88;;;26.50
72054;BMP280;59918;51.280;7.950;2023-07-24T09:49:48;96781.69;;;25.93
72054;BMP280;59918;51.280;7.950;2023-07-24T09:52:19;96760.78;;;25.56
72054;BMP280;59918;51.280;7.950;2023-07-24T09:55:06;96760.78;;;25.36
72054;BMP280;59918;51.280;7.950;2023-07-24T09:57:34;96762.69;;;25.27
72054;BMP280;59918;51.280;7.950;2023-07-24T10:00:00;96758.72;;;25.41
72054;BMP280;59918;51.280;7.950;2023-07-24T10:02:29;96748.97;;;25.42
72054;BMP280;59918;51.280;7.950;2023-07-24T10:04:55;96752.69;;;25.81
72054;BMP280;59918;51.280;7.950;2023-07-24T10:07:22;96758.69;;;26.02
72054;BMP280;59918;51.280;7.950;2023-07-24T10:09:48;96758.13;;;26.41
72054;BMP280;59918;51.280;7.950;2023-07-24T10:12:18;96752.34;;;26.71
72054;BMP280;59918;51.280;7.950;2023-07-24T10:14:45;96751.31;;;26.40
72054;BMP280;59918;51.280;7.950;2023-07-24T10:17:11;96749.56;;;26.11
72054;BMP280;59918;51.280;7.950;2023-07-24T10:19:39;96734.66;;;26.95
72054;BMP280;59918;51.280;7.950;2023-07-24T10:22:05;96727.97;;;28.33
72054;BMP280;59918;51.280;7.950;2023-07-24T10:24:30;96731.03;;;28.35
72054;BMP280;59918;51.280;7.950;2023-07-24T10:26:56;96728.59;;;27.84
72054;BMP280;59918;51.280;7.950;2023-07-24T10:29:24;96739.53;;;27.98
72054;BMP280;59918;51.280;7.950;2023-07-24T10:31:53;96748.59;;;27.58
72054;BMP280;59918;51.280;7.950;2023-07-24T10:34:18;96736.41;;;27.03
72054;BMP280;59918;51.280;7.950;2023-07-24T10:36:43;96748.59;;;26.72
72054;BMP280;59918;51.280;7.950;2023-07-24T10:39:16;96744.31;;;26.55
72054;BMP280;59918;51.280;7.950;2023-07-24T10:41:42;96745.63;;;26.61
72054;BMP280;59918;51.280;7.950;2023-07-24T10:44:07;96749.78;;;26.39
72054;BMP280;59918;51.280;7.950;2023-07-24T10:46:41;96735.63;;;26.11
72054;BMP280;59918;51.280;7.950;2023-07-24T10:49:07;96736.78;;;25.90
72054;BMP280;59918;51.280;7.950;2023-07-24T10:51:33;96736.56;;;25.83
72054;BMP280;59918;51.280;7.950;2023-07-24T10:53:58;96739.66;;;25.85
72054;BMP280;59918;51.280;7.950;2023-07-24T10:56:24;96743.72;;;25.62
72054;BMP280;59918;51.280;7.950;2023-07-24T10:58:52;96744.53;;;25.34
72054;BMP280;59918;51.280;7.950;2023-07-24T11:01:18;96740.41;;;25.45
72054;BMP280;59918;51.280;7.950;2023-07-24T11:03:43;96736.31;;;25.56
72054;BMP280;59918;51.280;7.950;2023-07-24T11:06:32;96734.44;;;25.76
72054;BMP280;59918;51.280;7.950;2023-07-24T11:08:58;96733.41;;;25.49
72054;BMP280;59918;51.280;7.950;2023-07-24T11:11:32;96737.50;;;25.26
72054;BMP280;59918;51.280;7.950;2023-07-24T11:13:57;96738.88;;;25.03
72054;BMP280;59918;51.280;7.950;2023-07-24T11:16:23;96739.63;;;25.04
72054;BMP280;59918;51.280;7.950;2023-07-24T11:18:52;96730.28;;;24.94
72054;BMP280;59918;51.280;7.950;2023-07-24T11:21:17;96732.34;;;25.09
72054;BMP280;59918;51.280;7.950;2023-07-24T11:23:48;96721.75;;;25.38
72054;BMP280;59918;51.280;7.950;2023-07-24T11:26:19;96706.19;;;26.53
72054;BMP280;59918;51.280;7.950;2023-07-24T11:28:44;96689.22;;;27.94
72054;BMP280;59918;51.280;7.950;2023-07-24T11:31:09;96675.94;;;29.95
72054;BMP280;59918;51.280;7.950;2023-07-24T11:33:35;96677.03;;;30.35
72054;BMP280;59918;51.280;7.950;2023-07-24T11:36:04;96658.56;;;31.19
72054;BMP280;59918;51.280;7.950;2023-07-24T11:38:29;96663.94;;;31.26
72054;BMP280;59918;51.280;7.950;2023-07-24T11:40:55;96666.41;;;31.38
72054;BMP280;59918;51.280;7.950;2023-07-24T11:43:23;96664.34;;;30.95
72054;BMP280;59918;51.280;7.950;2023-07-24T11:45:52;96662.84;;;30.02
72054;BMP280;59918;51.280;7.950;2023-07-24T11:48:19;96656.13;;;29.48
72054;BMP280;59918;51.280;7.950;2023-07-24T11:50:46;96653.47;;;30.52
72054;BMP280;59918;51.280;7.950;2023-07-24T11:53:31;96629.81;;;31.93
72054;BMP280;59918;51.280;7.950;2023-07-24T11:55:59;96608.34;;;33.39
72054;BMP280;59918;51.280;7.950;2023-07-24T11:58:29;96598.94;;;34.42
72054;BMP280;59918;51.280;7.950;2023-07-24T12:00:55;96595.91;;;34.29
72054;BMP280;59918;51.280;7.950;2023-07-24T12:03:30;96601.22;;;34.23
72054;BMP280;59918;51.280;7.950;2023-07-24T12:05:55;96591.72;;;34.11
72054;BMP280;59918;51.280;7.950;2023-07-24T12:08:29;96573.81;;;34.19
72054;BMP280;59918;51.280;7.950;2023-07-24T12:10:55;96542.44;;;34.81
72054;BMP280;59918;51.280;7.950;2023-07-24T12:13:20;96542.38;;;34.95
72054;BMP280;59918;51.280;7.950;2023-07-24T12:15:45;96537.50;;;35.54
72054;BMP280;59918;51.280;7.950;2023-07-24T12:18:10;96525.81;;;33.94
72054;BMP280;59918;51.280;7.950;2023-07-24T12:20:36;96542.63;;;32.12
72054;BMP280;59918;51.280;7.950;2023-07-24T12:23:04;96517.91;;;30.61
72054;BMP280;59918;51.280;7.950;2023-07-24T12:25:30;96532.22;;;29.35
72054;BMP280;59918;51.280;7.950;2023-07-24T12:27:55;96566.50;;;28.23
72054;BMP280;59918;51.280;7.950;2023-07-24T12:30:20;96583.06;;;27.31
72054;BMP280;59918;51.280;7.950;2023-07-24T12:32:45;96578.03;;;26.48
72054;BMP280;59918;51.280;7.950;2023-07-24T12:35:11;96567.19;;;25.91
72054;BMP280;59918;51.280;7.950;2023-07-24T12:37:42;96575.34;;;25.54
72054;BMP280;59918;51.280;7.950;2023-07-24T12:40:08;96559.88;;;25.08
72054;BMP280;59918;51.280;7.950;2023-07-24T12:42:33;96574.03;;;24.55
72054;BMP280;59918;51.280;7.950;2023-07-24T12:44:59;96571.41;;;23.61
72054;BMP280;59918;51.280;7.950;2023-07-24T12:47:31;96583.81;;;22.51
72054;BMP280;59918;51.280;7.950;2023-07-24T12:49:57;96633.13;;;21.64
72054;BMP280;59918;51.280;7.950;2023-07-24T12:52:22;96672.84;;;20.74
72054;BMP280;59918;51.280;7.950;2023-07-24T12:54:47;96690.06;;;19.95
72054;BMP280;59918;51.280;7.950;2023-07-24T12:57:16;96739.13;;;19.43
72054;BMP280;59918;51.280;7.950;2023-07-24T12:59:41;96780.06;;;19.06
72054;BMP280;59918;51.280;7.950;2023-07-24T13:02:06;96724.94;;;19.00
72054;BMP280;59918;51.280;7.950;2023-07-24T13:04:31;96723.94;;;19.14
72054;BMP280;59918;51.280;7.950;2023-07-24T13:06:59;96702.56;;;19.30
72054;BMP280;59918;51.280;7.950;2023-07-24T13:09:30;96668.72;;;19.62
72054;BMP280;59918;51.280;7.950;2023-07-24T13:11:55;96671.81;;;20.22
72054;BMP280;59918;51.280;7.950;2023-07-24T13:14:21;96665.03;;;22.13
72054;BMP280;59918;51.280;7.950;2023-07-24T13:16:46;96669.19;;;24.89
72054;BMP280;59918;51.280;7.950;2023-07-24T13:19:15;96657.81;;;27.35
72054;BMP280;59918;51.280;7.950;2023-07-24T13:21:41;96671.16;;;27.54
72054;BMP280;59918;51.280;7.950;2023-07-24T13:24:06;96681.31;;;25.63
72054;BMP280;59918;51.280;7.950;2023-07-24T13:26:32;96697.78;;;23.80
72054;BMP280;59918;51.280;7.950;2023-07-24T13:28:57;96706.22;;;22.68
72054;BMP280;59918;51.280;7.950;2023-07-24T13:31:22;96724.97;;;21.93
72054;BMP280;59918;51.280;7.950;2023-07-24T13:33:47;96714.69;;;21.31
72054;BMP280;59918;51.280;7.950;2023-07-24T13:36:16;96695.13;;;21.07
72054;BMP280;59918;51.280;7.950;2023-07-24T13:38:41;96685.91;;;21.09
72054;BMP280;59918;51.280;7.950;2023-07-24T13:41:07;96699.44;;;21.24
72054;BMP280;59918;51.280;7.950;2023-07-24T13:43:32;96699.44;;;21.24
72054;BMP280;59918;51.280;7.950;2023-07-24T13:45:58;96694.53;;;21.31
72054;BMP280;59918;51.280;7.950;2023-07-24T13:48:32;96679.97;;;21.52
72054;BMP280;59918;51.280;7.950;2023-07-24T13:51:05;96663.19;;;22.52
72054;BMP280;59918;51.280;7.950;2023-07-24T13:53:30;96659.88;;;24.06
72054;BMP280;59918;51.280;7.950;2023-07-24T13:55:55;96656.56;;;25.75
72054;BMP280;59918;51.280;7.950;2023-07-24T13:58:20;96640.72;;;26.67
72054;BMP280;59918;51.280;7.950;2023-07-24T14:00:46;96637.47;;;27.36
72054;BMP280;59918;51.280;7.950;2023-07-24T14:03:11;96636.25;;;28.18
72054;BMP280;59918;51.280;7.950;2023-07-24T14:05:39;96622.69;;;27.19
72054;BMP280;59918;51.280;7.950;2023-07-24T14:08:05;96613.66;;;29.23
72054;BMP280;59918;51.280;7.950;2023-07-24T14:10:30;96594.13;;;31.94